Time;durP1;ratioP1;P1;durP2;ratioP2;P2;SDS_P1;SDS_P2;PMS_P1;PMS_P2;Temp;Humidity;BMP_temperature;BMP_pressure;BME280_temperature;BME280_humidity;BME280_pressure;Samples;Min_cycle;Max_cycle;Signal;HPM_P1;HPM_P2
2024/02/28 00:00:25;;;;;;;;;;;;;;;16.16;51.06;101441.50;5035599;28;1047;-56
2024/02/28 00:02:51;;;;;;;;;;;;;;;15.83;52.00;101435.00;5036008;28;1177;-56
2024/02/28 00:05:16;;;;;;;;;;;;;;;15.62;52.53;101444.81;5035477;28;1238;-58
2024/02/28 00:07:42;;;;;;;;;;;;;;;15.70;52.21;101449.06;5025407;28;1086;-58
2024/02/28 00:10:07;;;;;;;;;;;;;;;17.25;48.62;101440.75;5034035;28;1221;-58
2024/02/28 00:12:34;;;;;;;;;;;;;;;17.18;48.47;101446.50;5024241;28;1147;-57
2024/02/28 00:15:00;;;;;;;;;;;;;;;16.34;50.66;101437.63;5020604;28;1973;-58
2024/02/28 00:17:25;;;;;;;;;;;;;;;16.05;51.37;101435.03;5035398;28;1896;-57
2024/02/28 00:19:51;;;;;;;;;;;;;;;15.85;51.53;101435.59;5017294;28;1021;-58
2024/02/28 00:22:16;;;;;;;;;;;;;;;15.59;52.32;101439.84;5027805;28;1072;-58
2024/02/28 00:24:41;;;;;;;;;;;;;;;15.74;52.15;101433.78;5035822;28;1137;-57
2024/02/28 00:27:07;;;;;;;;;;;;;;;17.23;48.43;101427.28;5024336;28;1178;-57
2024/02/28 00:29:33;;;;;;;;;;;;;;;16.88;49.16;101436.84;5033460;28;1032;-58
2024/02/28 00:31:58;;;;;;;;;;;;;;;16.17;51.12;101447.81;5024387;28;1202;-59
2024/02/28 00:34:24;;;;;;;;;;;;;;;15.84;51.85;101435.84;5033829;28;1089;-58
2024/02/28 00:36:49;;;;;;;;;;;;;;;15.63;52.22;101430.03;5035566;28;1910;-58
2024/02/28 00:39:14;;;;;;;;;;;;;;;15.51;52.55;101435.59;5035513;28;1071;-58
2024/02/28 00:41:40;;;;;;;;;;;;;;;16.73;50.00;101433.91;5036152;28;1157;-58
2024/02/28 00:44:05;;;;;;;;;;;;;;;17.57;47.51;101431.66;5036332;28;1039;-59
2024/02/28 00:46:31;;;;;;;;;;;;;;;16.42;50.48;101434.44;5038836;28;1199;-59
2024/02/28 00:48:56;;;;;;;;;;;;;;;15.97;51.40;101443.72;5039209;28;1382;-58
2024/02/28 00:51:22;;;;;;;;;;;;;;;15.72;51.77;101438.66;5038893;28;1155;-58
2024/02/28 00:53:47;;;;;;;;;;;;;;;15.49;52.44;101447.91;5038753;28;1206;-58
2024/02/28 00:56:13;;;;;;;;;;;;;;;15.55;52.73;101452.38;5038525;28;1976;-58
2024/02/28 00:58:39;;;;;;;;;;;;;;;17.06;49.08;101451.31;5039047;28;1284;-58
2024/02/28 01:01:05;;;;;;;;;;;;;;;16.97;49.12;101447.38;5038577;28;1083;-58
2024/02/28 01:03:30;;;;;;;;;;;;;;;16.20;50.88;101447.28;5038663;28;1055;-58
2024/02/28 01:05:56;;;;;;;;;;;;;;;15.84;51.64;101439.41;5037833;28;1230;-58
2024/02/28 01:08:21;;;;;;;;;;;;;;;15.63;52.22;101448.41;5038634;28;1087;-58
2024/02/28 01:10:47;;;;;;;;;;;;;;;15.82;51.90;101440.75;5038662;28;939;-58
2024/02/28 01:13:12;;;;;;;;;;;;;;;17.31;48.33;101439.72;5038334;28;1059;-55
2024/02/28 01:15:41;;;;;;;;;;;;;;;16.84;49.38;101445.84;5038194;28;1983;-55
2024/02/28 01:18:07;;;;;;;;;;;;;;;16.12;50.94;101445.00;5038085;28;1048;-53
2024/02/28 01:20:33;;;;;;;;;;;;;;;15.80;51.75;101437.44;5038600;28;1130;-54
2024/02/28 01:22:58;;;;;;;;;;;;;;;15.62;52.10;101447.56;5038197;28;1188;-55
2024/02/28 01:25:24;;;;;;;;;;;;;;;15.47;52.45;101439.09;5038248;28;1075;-56
2024/02/28 01:27:49;;;;;;;;;;;;;;;16.56;50.09;101428.53;5038132;28;1126;-60
2024/02/28 01:30:15;;;;;;;;;;;;;;;17.60;47.57;101442.16;5027918;28;889;-59
2024/02/28 01:32:40;;;;;;;;;;;;;;;16.52;49.95;101435.59;5022212;28;1155;-59
2024/02/28 01:35:08;;;;;;;;;;;;;;;15.99;51.41;101440.72;5038186;28;1981;-59
2024/02/28 01:37:33;;;;;;;;;;;;;;;15.76;52.02;101437.06;5037489;28;1066;-58
2024/02/28 01:39:59;;;;;;;;;;;;;;;15.51;52.66;101440.25;5037616;28;1075;-59
2024/02/28 01:42:24;;;;;;;;;;;;;;;16.46;50.57;101434.72;5034382;28;1078;-58
2024/02/28 01:44:49;;;;;;;;;;;;;;;17.61;47.59;101430.03;5028214;28;1091;-59
2024/02/28 01:47:15;;;;;;;;;;;;;;;16.64;49.85;101444.53;5037787;28;1167;-58
2024/02/28 01:49:41;;;;;;;;;;;;;;;16.06;51.21;101447.69;5036832;28;1056;-59
2024/02/28 01:52:06;;;;;;;;;;;;;;;15.83;51.60;101448.72;5036518;28;1095;-59
2024/02/28 01:54:32;;;;;;;;;;;;;;;15.58;52.07;101449.13;5036903;28;904;-59
2024/02/28 01:56:57;;;;;;;;;;;;;;;15.47;52.42;101439.09;5035812;28;1902;-58
2024/02/28 01:59:23;;;;;;;;;;;;;;;16.86;49.69;101446.44;5037490;28;1059;-58
2024/02/28 02:01:48;;;;;;;;;;;;;;;17.07;48.64;101440.06;5036361;28;1051;-58
2024/02/28 02:04:14;;;;;;;;;;;;;;;16.22;50.66;101445.97;5037574;28;1142;-58
2024/02/28 02:06:41;;;;;;;;;;;;;;;15.84;51.65;101436.69;5036746;28;1115;-58
2024/02/28 02:09:07;;;;;;;;;;;;;;;15.66;51.98;101435.00;5036366;28;1187;-58
2024/02/28 02:11:32;;;;;;;;;;;;;;;16.29;50.86;101444.97;5037429;28;1242;-57
2024/02/28 02:13:58;;;;;;;;;;;;;;;17.55;47.67;101444.84;5037040;28;1024;-58
2024/02/28 02:16:26;;;;;;;;;;;;;;;16.64;49.63;101449.22;5036795;28;1906;-57
2024/02/28 02:18:51;;;;;;;;;;;;;;;16.05;51.22;101448.75;5037148;28;987;-56
2024/02/28 02:21:17;;;;;;;;;;;;;;;15.79;51.96;101446.72;5033872;28;1095;-56
2024/02/28 02:23:43;;;;;;;;;;;;;;;15.62;52.12;101453.03;5026383;28;1117;-56
2024/02/28 02:26:08;;;;;;;;;;;;;;;17.10;48.73;101456.03;5037602;28;1167;-57
2024/02/28 02:28:34;;;;;;;;;;;;;;;17.21;48.13;101462.44;5026962;28;1024;-56
2024/02/28 02:30:59;;;;;;;;;;;;;;;16.32;50.65;101456.25;5029962;28;1103;-57
2024/02/28 02:33:25;;;;;;;;;;;;;;;16.01;51.34;101458.56;5037069;28;1102;-56
2024/02/28 02:35:51;;;;;;;;;;;;;;;15.64;52.23;101461.00;5037086;28;1918;-57
2024/02/28 02:38:17;;;;;;;;;;;;;;;15.45;52.54;101463.19;5036775;28;992;-56
2024/02/28 02:40:42;;;;;;;;;;;;;;;15.99;51.78;101468.13;5033430;28;1175;-56
2024/02/28 02:43:09;;;;;;;;;;;;;;;17.37;48.13;101463.41;5031052;28;857;-56
2024/02/28 02:45:35;;;;;;;;;;;;;;;16.62;49.68;101459.59;5036589;28;1047;-56
2024/02/28 02:48:00;;;;;;;;;;;;;;;16.02;51.23;101467.63;5036629;28;1192;-57
2024/02/28 02:50:26;;;;;;;;;;;;;;;15.78;51.61;101467.84;5037111;28;1206;-56
2024/02/28 02:52:51;;;;;;;;;;;;;;;15.61;52.04;101473.31;5036404;28;1012;-57
2024/02/28 02:55:17;;;;;;;;;;;;;;;15.80;52.11;101475.84;5035880;28;1910;-57
2024/02/28 02:57:43;;;;;;;;;;;;;;;17.31;48.35;101469.97;5036710;28;1094;-56
2024/02/28 03:00:09;;;;;;;;;;;;;;;17.30;47.83;101470.22;5036220;28;1127;-58
2024/02/28 03:02:37;;;;;;;;;;;;;;;16.35;50.19;101474.94;5036603;28;1111;-58
2024/02/28 03:05:03;;;;;;;;;;;;;;;15.97;51.43;101471.13;5019846;28;1067;-57
2024/02/28 03:07:28;;;;;;;;;;;;;;;15.78;51.92;101477.94;5031328;28;908;-57
2024/02/28 03:09:54;;;;;;;;;;;;;;;15.52;52.25;101480.31;5036031;28;1090;-57
2024/02/28 03:12:19;;;;;;;;;;;;;;;16.25;50.80;101470.16;5026717;28;1091;-56
2024/02/28 03:14:44;;;;;;;;;;;;;;;17.44;47.82;101482.44;5032306;28;1072;-56
2024/02/28 03:17:10;;;;;;;;;;;;;;;16.43;50.17;101479.97;5036029;28;1983;-57
2024/02/28 03:19:36;;;;;;;;;;;;;;;15.98;51.27;101482.97;5036025;28;1181;-58
2024/02/28 03:22:02;;;;;;;;;;;;;;;15.70;52.08;101481.97;5036069;28;1079;-57
2024/02/28 03:24:28;;;;;;;;;;;;;;;15.55;52.36;101479.78;5035940;28;1095;-57
2024/02/28 03:26:53;;;;;;;;;;;;;;;15.44;52.63;101483.44;5036102;28;1117;-57
2024/02/28 03:29:19;;;;;;;;;;;;;;;17.01;48.92;101484.22;5035696;28;1155;-58
2024/02/28 03:31:44;;;;;;;;;;;;;;;17.60;47.28;101475.16;5035862;28;849;-58
2024/02/28 03:34:10;;;;;;;;;;;;;;;16.49;49.92;101489.09;5035938;28;1047;-58
2024/02/28 03:36:36;;;;;;;;;;;;;;;15.99;50.96;101479.97;5036080;28;1906;-58
2024/02/28 03:39:02;;;;;;;;;;;;;;;15.79;51.60;101491.44;5035885;28;1142;-58
2024/02/28 03:41:27;;;;;;;;;;;;;;;15.83;51.90;101497.25;5027387;28;1233;-58
2024/02/28 03:43:53;;;;;;;;;;;;;;;17.36;47.87;101491.16;5019277;28;853;-57
2024/02/28 03:46:18;;;;;;;;;;;;;;;17.14;48.31;101497.56;5036223;28;1047;-56
2024/02/28 03:48:44;;;;;;;;;;;;;;;16.28;50.49;101499.00;5035702;28;1111;-56
2024/02/28 03:51:09;;;;;;;;;;;;;;;16.01;50.99;101501.66;5035953;28;1078;-55
2024/02/28 03:53:35;;;;;;;;;;;;;;;15.73;51.88;101495.97;5035790;28;1135;-56
2024/02/28 03:56:00;;;;;;;;;;;;;;;15.54;52.04;101503.66;5035343;28;1913;-56
2024/02/28 03:58:27;;;;;;;;;;;;;;;15.98;51.30;101500.25;5022304;28;1070;-56
2024/02/28 04:00:53;;;;;;;;;;;;;;;17.38;47.67;101497.25;5036040;28;1043;-56
2024/02/28 04:03:18;;;;;;;;;;;;;;;16.77;48.93;101496.34;5035956;28;1186;-57
2024/02/28 04:05:44;;;;;;;;;;;;;;;16.17;50.54;101500.78;5035842;28;1238;-58
2024/02/28 04:08:10;;;;;;;;;;;;;;;15.79;51.39;101496.06;5035757;28;1069;-58
2024/02/28 04:10:35;;;;;;;;;;;;;;;15.63;51.88;101498.56;5034088;28;1348;-55
2024/02/28 04:13:01;;;;;;;;;;;;;;;15.42;52.49;101507.53;5016382;28;1110;-57
2024/02/28 04:15:27;;;;;;;;;;;;;;;16.38;50.42;101504.66;5029975;28;1910;-58
2024/02/28 04:17:52;;;;;;;;;;;;;;;17.59;47.30;101501.00;5028753;28;1107;-55
2024/02/28 04:20:18;;;;;;;;;;;;;;;16.72;49.11;101496.25;5035257;28;1530;-57
2024/02/28 04:22:43;;;;;;;;;;;;;;;16.06;50.72;101497.06;5039141;28;1009;-57
2024/02/28 04:25:09;;;;;;;;;;;;;;;15.85;51.48;101492.34;5025977;28;991;-57
2024/02/28 04:27:35;;;;;;;;;;;;;;;15.57;52.06;101494.06;5024205;28;1032;-57
2024/02/28 04:30:00;;;;;;;;;;;;;;;16.25;50.77;101499.50;5038995;28;1159;-61
2024/02/28 04:32:26;;;;;;;;;;;;;;;17.52;47.19;101495.69;5038498;28;1023;-61
2024/02/28 04:34:51;;;;;;;;;;;;;;;16.75;48.83;101498.50;5038387;28;1541;-59
2024/02/28 04:37:17;;;;;;;;;;;;;;;16.07;50.91;101501.47;5038841;28;1914;-60
2024/02/28 04:39:42;;;;;;;;;;;;;;;15.85;51.19;101495.09;5039416;28;1012;-60
2024/02/28 04:42:08;;;;;;;;;;;;;;;15.55;51.84;101493.50;5035159;28;2502;-60
2024/02/28 04:44:33;;;;;;;;;;;;;;;16.19;50.67;101506.03;5038784;28;1486;-60
2024/02/28 04:46:59;;;;;;;;;;;;;;;17.40;47.38;101506.88;5038897;28;1167;-59
2024/02/28 04:49:24;;;;;;;;;;;;;;;16.42;49.84;101505.78;5038995;28;1135;-60
2024/02/28 04:51:50;;;;;;;;;;;;;;;15.90;51.28;101514.38;5029691;28;1414;-57
2024/02/28 04:54:16;;;;;;;;;;;;;;;15.67;51.86;101516.19;5038594;28;1183;-59
2024/02/28 04:56:42;;;;;;;;;;;;;;;15.51;51.90;101534.28;5030419;28;1910;-57
2024/02/28 04:59:08;;;;;;;;;;;;;;;16.11;51.07;101531.16;5038538;28;1039;-59
2024/02/28 05:01:34;;;;;;;;;;;;;;;17.40;47.57;101534.38;5037806;28;1115;-58
2024/02/28 05:04:00;;;;;;;;;;;;;;;16.72;49.02;101536.63;5038519;28;980;-58
2024/02/28 05:06:26;;;;;;;;;;;;;;;16.04;50.76;101539.53;5035946;28;1052;-60
2024/02/28 05:08:51;;;;;;;;;;;;;;;15.72;51.52;101546.44;5037999;28;882;-59
2024/02/28 05:11:17;;;;;;;;;;;;;;;15.56;52.01;101550.00;5037978;28;1048;-59
2024/02/28 05:13:42;;;;;;;;;;;;;;;16.82;49.29;101542.25;5035507;28;2692;-58
2024/02/28 05:16:14;;;;;;;;;;;;;;;17.36;47.61;101541.50;5038130;28;1985;-59
2024/02/28 05:18:39;;;;;;;;;;;;;;;16.06;50.54;101540.97;5038115;28;1102;-59
2024/02/28 05:21:05;;;;;;;;;;;;;;;17.48;48.13;101538.56;5038163;28;1166;-59
2024/02/28 05:23:30;;;;;;;;;;;;;;;16.73;49.56;101541.88;5038095;28;1204;-59
2024/02/28 05:25:57;;;;;;;;;;;;;;;16.20;49.76;101548.81;5037745;28;1072;-59
2024/02/28 05:28:22;;;;;;;;;;;;;;;17.55;47.95;101549.34;5024827;28;1151;-56
2024/02/28 05:30:48;;;;;;;;;;;;;;;16.35;49.71;101545.47;5037356;28;1175;-54
2024/02/28 05:33:14;;;;;;;;;;;;;;;16.49;49.94;101554.19;5037321;28;1226;-57
2024/02/28 05:35:39;;;;;;;;;;;;;;;18.06;47.29;101551.69;5037831;28;1983;-58
2024/02/28 05:38:05;;;;;;;;;;;;;;;16.83;49.03;101557.66;5037870;28;1163;-57
2024/02/28 05:40:30;;;;;;;;;;;;;;;16.25;49.25;101565.38;5028277;28;1308;-52
2024/02/28 05:42:56;;;;;;;;;;;;;;;16.29;49.57;101563.78;5032800;28;2685;-57
2024/02/28 05:45:21;;;;;;;;;;;;;;;17.86;47.71;101560.63;5037673;28;1219;-57
2024/02/28 05:47:47;;;;;;;;;;;;;;;16.57;49.65;101567.47;5038106;28;1234;-52
2024/02/28 05:50:13;;;;;;;;;;;;;;;16.30;49.06;101561.88;5036786;28;1423;-58
2024/02/28 05:52:41;;;;;;;;;;;;;;;17.59;48.74;101565.06;5037710;28;953;-58
2024/02/28 05:55:06;;;;;;;;;;;;;;;16.72;49.85;101564.91;5037024;28;1046;-60
2024/02/28 05:57:32;;;;;;;;;;;;;;;16.22;49.50;101565.88;5037407;28;1202;-62
2024/02/28 05:59:57;;;;;;;;;;;;;;;17.60;48.35;101568.66;5037550;28;1082;-65
2024/02/28 06:02:23;;;;;;;;;;;;;;;16.54;49.84;101570.72;5037567;28;1087;-65
2024/02/28 06:04:48;;;;;;;;;;;;;;;16.32;48.72;101577.00;5024592;28;1108;-63
2024/02/28 06:07:14;;;;;;;;;;;;;;;16.98;49.74;101576.25;5036603;28;1003;-61
2024/02/28 06:09:39;;;;;;;;;;;;;;;17.35;48.70;101567.31;5030266;28;1286;-62
2024/02/28 06:12:05;;;;;;;;;;;;;;;16.55;49.59;101583.34;5036323;28;2546;-57
2024/02/28 06:14:31;;;;;;;;;;;;;;;16.20;48.85;101579.84;5037148;28;1119;-60
2024/02/28 06:16:56;;;;;;;;;;;;;;;17.43;48.98;101580.59;5037752;28;1905;-63
2024/02/28 06:19:22;;;;;;;;;;;;;;;16.91;49.65;101583.84;5036449;28;1155;-63
2024/02/28 06:21:47;;;;;;;;;;;;;;;16.42;49.56;101581.81;5036219;28;1251;-60
2024/02/28 06:24:13;;;;;;;;;;;;;;;17.72;48.59;101580.28;5037086;28;1071;-61
2024/02/28 06:26:38;;;;;;;;;;;;;;;16.74;49.66;101583.88;5028593;28;952;-61
2024/02/28 06:29:06;;;;;;;;;;;;;;;16.43;49.26;101584.28;5020415;28;1128;-63
2024/02/28 06:31:32;;;;;;;;;;;;;;;17.84;48.18;101576.53;5026196;28;1007;-62
2024/02/28 06:33:57;;;;;;;;;;;;;;;16.92;49.47;101578.09;5023860;28;1218;-63
2024/02/28 06:36:23;;;;;;;;;;;;;;;16.57;49.28;101572.97;5036069;28;1898;-62
2024/02/28 06:38:48;;;;;;;;;;;;;;;17.04;49.77;101585.38;5036087;28;1036;-63
2024/02/28 06:41:14;;;;;;;;;;;;;;;17.82;48.07;101576.78;5035982;28;1147;-64
2024/02/28 06:43:39;;;;;;;;;;;;;;;16.85;49.61;101587.59;5035636;28;2073;-64
2024/02/28 06:46:05;;;;;;;;;;;;;;;16.56;48.91;101587.75;5019063;28;1052;-63
2024/02/28 06:48:30;;;;;;;;;;;;;;;16.62;49.14;101594.16;5027001;28;1040;-64
2024/02/28 06:50:57;;;;;;;;;;;;;;;18.18;47.61;101592.81;5031926;28;1127;-63
2024/02/28 06:53:23;;;;;;;;;;;;;;;17.06;49.46;101597.78;5021426;28;1124;-64
2024/02/28 06:55:48;;;;;;;;;;;;;;;16.62;49.13;101605.13;5035185;28;1902;-56
2024/02/28 06:58:14;;;;;;;;;;;;;;;17.88;48.45;101607.94;5035450;28;1155;-58
2024/02/28 07:00:40;;;;;;;;;;;;;;;17.16;49.21;101607.22;5036291;28;1120;-59
2024/02/28 07:03:06;;;;;;;;;;;;;;;17.56;48.87;101612.34;5035887;28;1063;-58
2024/02/28 07:05:31;;;;;;;;;;;;;;;18.25;47.10;101616.25;5027343;28;1039;-59
2024/02/28 07:07:57;;;;;;;;;;;;;;;17.22;48.65;101617.19;5029677;28;1048;-58
2024/02/28 07:10:23;;;;;;;;;;;;;;;16.82;48.63;101601.84;5024766;28;1015;-54
2024/02/28 07:12:48;;;;;;;;;;;;;;;16.62;48.26;101614.22;5035482;28;2176;-55
2024/02/28 07:15:14;;;;;;;;;;;;;;;16.53;47.54;101604.75;5035901;28;1939;-56
2024/02/28 07:17:39;;;;;;;;;;;;;;;16.43;47.80;101610.94;5029896;28;1257;-59
2024/02/28 07:20:06;;;;;;;;;;;;;;;17.84;47.88;101596.63;5029192;28;1285;-55
2024/02/28 07:22:32;;;;;;;;;;;;;;;16.81;49.37;101601.00;5033775;28;1196;-57
2024/02/28 07:24:58;;;;;;;;;;;;;;;16.57;48.93;101598.50;5033378;28;1143;-56
2024/02/28 07:27:26;;;;;;;;;;;;;;;17.73;48.44;101598.47;5035533;28;1206;-58
2024/02/28 07:29:51;;;;;;;;;;;;;;;17.24;49.05;101606.78;5034800;28;1191;-58
2024/02/28 07:32:17;;;;;;;;;;;;;;;16.75;49.27;101596.53;5034438;28;1347;-56
2024/02/28 07:34:42;;;;;;;;;;;;;;;16.51;48.66;101612.41;5032720;28;1230;-56
2024/02/28 07:37:08;;;;;;;;;;;;;;;16.62;48.42;101600.50;5034135;28;1910;-57
2024/02/28 07:39:33;;;;;;;;;;;;;;;17.79;48.44;101593.84;5035171;28;1083;-57
2024/02/28 07:41:59;;;;;;;;;;;;;;;16.81;49.20;101594.69;5033897;28;2001;-54
2024/02/28 07:44:25;;;;;;;;;;;;;;;16.51;48.72;101595.91;5029608;28;1346;-60
2024/02/28 07:46:51;;;;;;;;;;;;;;;16.34;47.92;101596.81;5035060;28;1233;-55
2024/02/28 07:49:16;;;;;;;;;;;;;;;17.23;48.91;101599.63;5032714;28;1238;-61
2024/02/28 07:51:42;;;;;;;;;;;;;;;18.34;47.24;101600.09;5027449;28;1360;-53
2024/02/28 07:54:07;;;;;;;;;;;;;;;17.06;49.10;101597.78;5035876;28;1064;-53
2024/02/28 07:56:33;;;;;;;;;;;;;;;16.68;48.86;101593.16;5037482;28;1980;-53
2024/02/28 07:58:58;;;;;;;;;;;;;;;16.54;47.99;101596.25;5035034;28;1421;-54
2024/02/28 08:01:23;;;;;;;;;;;;;;;17.78;48.58;101593.00;5039116;28;1176;-50
2024/02/28 08:03:49;;;;;;;;;;;;;;;17.31;48.92;101599.16;5038715;28;1099;-54
2024/02/28 08:06:16;;;;;;;;;;;;;;;16.75;49.13;101591.88;5039084;28;1087;-56
2024/02/28 08:08:45;;;;;;;;;;;;;;;16.53;48.42;101607.50;5034161;28;1370;-56
2024/02/28 08:11:10;;;;;;;;;;;;;;;16.41;47.62;101591.97;5039121;28;904;-54
2024/02/28 08:13:36;;;;;;;;;;;;;;;16.28;48.08;101599.72;5032093;28;1902;-57
2024/02/28 08:16:01;;;;;;;;;;;;;;;17.86;48.18;101593.63;5036895;28;1918;-55
2024/02/28 08:18:28;;;;;;;;;;;;;;;17.01;49.38;101599.63;5039319;28;1016;-54
2024/02/28 08:20:57;;;;;;;;;;;;;;;16.58;49.04;101597.41;5038809;28;1047;-58
2024/02/28 08:23:23;;;;;;;;;;;;;;;17.73;48.48;101592.97;5034781;28;1109;-55
2024/02/28 08:25:48;;;;;;;;;;;;;;;17.17;49.40;101603.41;5038932;28;1121;-56
2024/02/28 08:28:14;;;;;;;;;;;;;;;16.70;49.12;101601.97;5038630;28;1107;-55
2024/02/28 08:30:39;;;;;;;;;;;;;;;16.49;48.40;101601.66;5019587;28;1056;-57
2024/02/28 08:33:06;;;;;;;;;;;;;;;16.37;47.89;101601.78;5030187;28;1202;-53
2024/02/28 08:35:31;;;;;;;;;;;;;;;16.80;48.43;101599.34;5038522;28;1906;-58
2024/02/28 08:37:57;;;;;;;;;;;;;;;18.20;47.86;101602.47;5035912;28;1125;-54
2024/02/28 08:40:22;;;;;;;;;;;;;;;17.24;49.55;101606.78;5028668;28;1658;-56
2024/02/28 08:42:49;;;;;;;;;;;;;;;16.74;49.28;101595.69;5036357;28;1942;-55
2024/02/28 08:45:15;;;;;;;;;;;;;;;16.56;48.32;101610.59;5038573;28;1139;-57
2024/02/28 08:47:41;;;;;;;;;;;;;;;16.95;49.00;101606.97;5037299;28;1202;-57
2024/02/28 08:50:07;;;;;;;;;;;;;;;18.45;47.36;101596.28;5032281;28;1086;-55
2024/02/28 08:52:32;;;;;;;;;;;;;;;17.35;49.07;101597.56;5034235;28;1397;-54
2024/02/28 08:54:58;;;;;;;;;;;;;;;16.93;48.71;101604.50;5029269;28;1230;-55
2024/02/28 08:57:24;;;;;;;;;;;;;;;17.44;49.01;101604.22;5033996;28;1914;-57
2024/02/28 08:59:49;;;;;;;;;;;;;;;17.45;49.14;101600.41;5037627;28;1251;-55
2024/02/28 09:02:15;;;;;;;;;;;;;;;16.87;48.74;101604.66;5034567;28;962;-54
2024/02/28 09:04:41;;;;;;;;;;;;;;;17.95;48.24;101608.59;5030166;28;1004;-56
2024/02/28 09:07:06;;;;;;;;;;;;;;;17.30;49.03;101613.97;5034579;28;1376;-55
2024/02/28 09:09:36;;;;;;;;;;;;;;;16.92;48.60;101613.00;5037943;28;1198;-56
2024/02/28 09:12:03;;;;;;;;;;;;;;;16.72;47.87;101617.09;5025318;28;2068;-52
2024/02/28 09:14:28;;;;;;;;;;;;;;;16.62;47.51;101619.72;5032037;28;1152;-46
2024/02/28 09:16:55;;;;;;;;;;;;;;;17.33;48.59;101612.63;5037855;28;1906;-48
2024/02/28 09:19:21;;;;;;;;;;;;;;;17.22;49.06;101606.19;5038092;28;1039;-52
2024/02/28 09:21:47;;;;;;;;;;;;;;;16.74;49.03;101606.69;5035102;28;956;-52
2024/02/28 09:24:13;;;;;;;;;;;;;;;17.22;49.28;101608.94;5018603;28;1136;-44
2024/02/28 09:26:39;;;;;;;;;;;;;;;17.29;48.95;101606.81;5033653;28;1028;-51
2024/02/28 09:29:04;;;;;;;;;;;;;;;16.83;49.18;101614.47;5024171;28;1119;-50
2024/02/28 09:31:30;;;;;;;;;;;;;;;16.55;48.31;101608.06;5025210;28;1096;-50
2024/02/28 09:33:58;;;;;;;;;;;;;;;16.60;47.81;101622.69;5036598;28;1075;-54
2024/02/28 09:36:23;;;;;;;;;;;;;;;18.19;47.92;101613.72;5031576;28;1913;-56
2024/02/28 09:38:49;;;;;;;;;;;;;;;17.33;49.01;101613.47;5031592;28;1262;-57
2024/02/28 09:41:15;;;;;;;;;;;;;;;16.84;49.05;101618.91;5031327;28;1084;-59
2024/02/28 09:43:41;;;;;;;;;;;;;;;17.31;49.08;101612.91;5033056;28;1927;-56
2024/02/28 09:46:07;;;;;;;;;;;;;;;17.23;49.09;101627.09;5037477;28;1309;-56
2024/02/28 09:48:32;;;;;;;;;;;;;;;16.76;49.04;101617.44;5028758;28;1060;-56
2024/02/28 09:50:58;;;;;;;;;;;;;;;16.62;48.39;101618.88;5036354;28;1155;-57
2024/02/28 09:53:24;;;;;;;;;;;;;;;18.12;47.76;101614.78;5036028;28;1210;-55
2024/02/28 09:55:50;;;;;;;;;;;;;;;17.04;49.22;101615.59;5025694;28;1918;-55
2024/02/28 09:58:15;;;;;;;;;;;;;;;16.79;48.72;101613.31;5036871;28;901;-56
2024/02/28 10:00:43;;;;;;;;;;;;;;;16.81;48.43;101611.16;5033088;28;1322;-56
2024/02/28 10:03:10;;;;;;;;;;;;;;;18.41;47.17;101611.69;5030954;28;1028;-59
2024/02/28 10:05:35;;;;;;;;;;;;;;;17.33;48.77;101607.97;5036727;28;1024;-57
2024/02/28 10:08:01;;;;;;;;;;;;;;;16.92;48.70;101607.50;5037347;28;1087;-57
2024/02/28 10:10:28;;;;;;;;;;;;;;;16.70;47.90;101611.03;5029689;28;1269;-56
2024/02/28 10:12:53;;;;;;;;;;;;;;;16.60;47.46;101605.41;5032098;28;2096;-56
2024/02/28 10:15:19;;;;;;;;;;;;;;;17.02;47.91;101604.03;5029596;28;1905;-51
2024/02/28 10:17:44;;;;;;;;;;;;;;;18.18;47.44;101596.38;5030813;28;1084;-57
2024/02/28 10:20:10;;;;;;;;;;;;;;;17.06;49.37;101600.53;5036147;28;1255;-49
2024/02/28 10:22:36;;;;;;;;;;;;;;;16.67;48.96;101595.06;5035049;28;1249;-56
2024/02/28 10:25:02;;;;;;;;;;;;;;;16.50;48.29;101594.28;5032720;28;1293;-57
2024/02/28 10:27:27;;;;;;;;;;;;;;;16.42;47.37;101596.38;5028364;28;1257;-53
2024/02/28 10:29:53;;;;;;;;;;;;;;;16.83;47.65;101589.75;5036299;28;1265;-58
2024/02/28 10:32:18;;;;;;;;;;;;;;;18.20;47.88;101588.69;5036187;28;1119;-55
2024/02/28 10:34:44;;;;;;;;;;;;;;;17.06;49.37;101586.78;5035271;28;1305;-50
2024/02/28 10:37:10;;;;;;;;;;;;;;;16.76;48.63;101581.72;5028990;28;1979;-57
2024/02/28 10:39:35;;;;;;;;;;;;;;;16.50;48.14;101586.03;5018162;28;1135;-57
2024/02/28 10:42:01;;;;;;;;;;;;;;;17.65;48.61;101587.94;5032393;28;2024;-59
2024/02/28 10:44:27;;;;;;;;;;;;;;;17.22;49.16;101584.19;5049869;28;1187;-56
2024/02/28 10:46:52;;;;;;;;;;;;;;;16.66;49.32;101587.94;5034745;28;908;-56
2024/02/28 10:49:18;;;;;;;;;;;;;;;16.58;48.31;101574.63;5035477;28;1117;-58
2024/02/28 10:51:45;;;;;;;;;;;;;;;17.24;48.63;101573.78;5036102;28;1108;-56
2024/02/28 10:54:14;;;;;;;;;;;;;;;17.27;49.16;101570.53;5034926;28;1119;-55
2024/02/28 10:56:40;;;;;;;;;;;;;;;16.74;48.79;101570.97;5025563;28;1975;-56
2024/02/28 10:59:06;;;;;;;;;;;;;;;17.05;49.41;101576.03;5032825;28;1187;-56
2024/02/28 11:01:32;;;;;;;;;;;;;;;17.85;47.93;101558.94;5029975;28;1107;-55
2024/02/28 11:03:57;;;;;;;;;;;;;;;16.96;48.90;101567.44;5035920;28;1032;-52
2024/02/28 11:06:23;;;;;;;;;;;;;;;16.78;48.27;101563.06;5022938;28;1067;-55
2024/02/28 11:08:52;;;;;;;;;;;;;;;16.57;47.53;101562.78;5036120;28;1206;-60
2024/02/28 11:11:20;;;;;;;;;;;;;;;18.12;47.85;101562.47;5022350;28;896;-58
2024/02/28 11:13:52;;;;;;;;;;;;;;;17.07;49.33;101555.47;5025458;28;2719;-52
2024/02/28 11:16:19;;;;;;;;;;;;;;;16.73;48.69;101555.59;5067594;28;1902;-49
2024/02/28 11:18:49;;;;;;;;;;;;;;;16.50;48.33;101559.41;5067650;28;1436;-57
2024/02/28 11:21:17;;;;;;;;;;;;;;;18.06;47.61;101555.28;5035489;28;1015;-53
2024/02/28 11:23:46;;;;;;;;;;;;;;;17.09;49.14;101553.28;5026580;28;1163;-53
2024/02/28 11:26:13;;;;;;;;;;;;;;;16.72;48.42;101553.13;5028884;28;1321;-55
2024/02/28 11:28:39;;;;;;;;;;;;;;;17.14;49.02;101559.94;5030884;28;1092;-56
2024/02/28 11:31:05;;;;;;;;;;;;;;;17.65;48.39;101549.44;5035789;28;1039;-58
2024/02/28 11:33:30;;;;;;;;;;;;;;;16.97;49.08;101552.63;5022335;28;1209;-55
2024/02/28 11:35:56;;;;;;;;;;;;;;;16.67;48.44;101545.63;5026260;28;1965;-56
2024/02/28 11:38:24;;;;;;;;;;;;;;;17.71;48.54;101545.66;5032229;28;1389;-51
2024/02/28 11:40:50;;;;;;;;;;;;;;;17.43;48.91;101539.34;5033916;28;1143;-57
2024/02/28 11:43:15;;;;;;;;;;;;;;;16.96;48.84;101542.72;5032547;28;2259;-54
2024/02/28 11:45:46;;;;;;;;;;;;;;;16.65;48.18;101542.31;5035199;28;1015;-53
2024/02/28 11:48:12;;;;;;;;;;;;;;;16.62;47.14;101534.59;5028926;28;1051;-55
2024/02/28 11:50:37;;;;;;;;;;;;;;;17.50;48.06;101530.91;5036063;28;1088;-56
2024/02/28 11:53:04;;;;;;;;;;;;;;;17.23;49.05;101530.91;5022303;28;1037;-51
2024/02/28 11:55:30;;;;;;;;;;;;;;;16.75;48.88;101531.44;5032458;28;2004;-55
2024/02/28 11:57:55;;;;;;;;;;;;;;;16.51;48.12;101525.38;5034840;28;1265;-55
2024/02/28 12:00:21;;;;;;;;;;;;;;;16.87;48.48;101527.72;5032341;28;1116;-55
2024/02/28 12:02:47;;;;;;;;;;;;;;;18.03;47.66;101516.47;5026434;28;1384;-57
2024/02/28 12:05:13;;;;;;;;;;;;;;;17.03;49.23;101529.59;5035673;28;1278;-55
2024/02/28 12:07:38;;;;;;;;;;;;;;;16.71;48.70;101523.97;5035374;28;1348;-48
2024/02/28 12:10:04;;;;;;;;;;;;;;;16.53;47.72;101522.38;5035218;28;1246;-58
2024/02/28 12:12:29;;;;;;;;;;;;;;;16.48;47.11;101519.56;5031213;28;1147;-57
2024/02/28 12:14:59;;;;;;;;;;;;;;;16.48;47.42;101525.91;5031303;28;1166;-59
2024/02/28 12:17:25;;;;;;;;;;;;;;;17.70;48.21;101521.97;5033160;28;1966;-57
2024/02/28 12:19:51;;;;;;;;;;;;;;;16.78;49.24;101530.09;5028595;28;1441;-60
2024/02/28 12:22:16;;;;;;;;;;;;;;;17.74;48.46;101542.38;5032708;28;996;-56
2024/02/28 12:24:42;;;;;;;;;;;;;;;17.50;48.85;101533.66;5034908;28;1063;-55
2024/02/28 12:27:07;;;;;;;;;;;;;;;16.92;49.10;101525.09;5030842;28;1414;-54
2024/02/28 12:29:33;;;;;;;;;;;;;;;16.69;48.44;101531.63;5035446;28;1012;-55
2024/02/28 12:31:58;;;;;;;;;;;;;;;17.12;48.98;101523.66;5034586;28;1281;-55
2024/02/28 12:34:24;;;;;;;;;;;;;;;17.33;49.02;101520.00;5034048;28;1059;-52
2024/02/28 12:36:49;;;;;;;;;;;;;;;16.80;49.01;101522.44;5035349;28;1909;-55
2024/02/28 12:39:15;;;;;;;;;;;;;;;18.21;47.75;101524.28;5027029;28;1023;-53